sensor_id;sensor_type;location;lat;lon;timestamp;P1;durP1;ratioP1;P2;durP2;ratioP2
40433;SDS011;26146;51.114;5.654;2023-07-20T00:02:09;8.00;;;2.55;;
40433;SDS011;26146;51.114;5.654;2023-07-20T00:06:10;7.47;;;2.30;;
40433;SDS011;26146;51.114;5.654;2023-07-20T00:10:12;7.70;;;2.50;;
40433;SDS011;26146;51.114;5.654;2023-07-20T00:14:12;9.15;;;2.45;;
40433;SDS011;26146;51.114;5.654;2023-07-20T00:18:16;8.30;;;2.38;;
40433;SDS011;26146;51.114;5.654;2023-07-20T00:22:17;8.98;;;2.75;;
40433;SDS011;26146;51.114;5.654;2023-07-20T00:26:18;8.57;;;2.80;;
40433;SDS011;26146;51.114;5.654;2023-07-20T00:30:18;9.63;;;2.85;;
40433;SDS011;26146;51.114;5.654;2023-07-20T00:34:20;7.32;;;2.55;;
40433;SDS011;26146;51.114;5.654;2023-07-20T00:38:21;8.23;;;2.60;;
40433;SDS011;26146;51.114;5.654;2023-07-20T00:42:22;8.85;;;2.80;;
40433;SDS011;26146;51.114;5.654;2023-07-20T00:46:23;7.35;;;2.83;;
40433;SDS011;26146;51.114;5.654;2023-07-20T00:50:27;8.75;;;2.50;;
40433;SDS011;26146;51.114;5.654;2023-07-20T00:54:29;7.57;;;2.47;;
40433;SDS011;26146;51.114;5.654;2023-07-20T00:58:30;6.88;;;2.50;;
40433;SDS011;26146;51.114;5.654;2023-07-20T01:02:31;8.05;;;2.47;;
40433;SDS011;26146;51.114;5.654;2023-07-20T01:14:44;7.80;;;2.38;;
40433;SDS011;26146;51.114;5.654;2023-07-20T01:18:45;8.50;;;2.63;;
40433;SDS011;26146;51.114;5.654;2023-07-20T01:22:58;8.82;;;2.53;;
40433;SDS011;26146;51.114;5.654;2023-07-20T01:31:40;10.48;;;2.60;;
40433;SDS011;26146;51.114;5.654;2023-07-20T01:35:43;7.70;;;2.67;;
40433;SDS011;26146;51.114;5.654;2023-07-20T01:39:46;8.25;;;2.85;;
40433;SDS011;26146;51.114;5.654;2023-07-20T01:43:47;7.82;;;2.78;;
40433;SDS011;26146;51.114;5.654;2023-07-20T01:47:48;9.77;;;2.53;;
40433;SDS011;26146;51.114;5.654;2023-07-20T01:51:49;8.45;;;2.90;;
40433;SDS011;26146;51.114;5.654;2023-07-20T01:55:52;8.55;;;2.75;;
40433;SDS011;26146;51.114;5.654;2023-07-20T01:59:56;8.82;;;2.83;;
40433;SDS011;26146;51.114;5.654;2023-07-20T02:03:57;8.93;;;2.60;;
40433;SDS011;26146;51.114;5.654;2023-07-20T02:07:58;9.35;;;2.78;;
40433;SDS011;26146;51.114;5.654;2023-07-20T02:11:59;7.85;;;2.55;;
40433;SDS011;26146;51.114;5.654;2023-07-20T02:16:00;8.00;;;2.50;;
40433;SDS011;26146;51.114;5.654;2023-07-20T02:20:01;8.48;;;2.60;;
40433;SDS011;26146;51.114;5.654;2023-07-20T02:24:02;8.30;;;2.60;;
40433;SDS011;26146;51.114;5.654;2023-07-20T02:28:03;7.68;;;2.45;;
40433;SDS011;26146;51.114;5.654;2023-07-20T02:32:05;10.45;;;3.13;;
40433;SDS011;26146;51.114;5.654;2023-07-20T02:36:06;9.05;;;2.95;;
40433;SDS011;26146;51.114;5.654;2023-07-20T02:40:07;8.80;;;2.75;;
40433;SDS011;26146;51.114;5.654;2023-07-20T02:44:09;9.93;;;3.00;;
40433;SDS011;26146;51.114;5.654;2023-07-20T02:48:10;11.27;;;3.08;;
40433;SDS011;26146;51.114;5.654;2023-07-20T02:52:11;9.65;;;3.05;;
40433;SDS011;26146;51.114;5.654;2023-07-20T02:56:12;10.00;;;3.00;;
40433;SDS011;26146;51.114;5.654;2023-07-20T03:00:14;11.45;;;3.20;;
40433;SDS011;26146;51.114;5.654;2023-07-20T03:04:16;8.15;;;2.95;;
40433;SDS011;26146;51.114;5.654;2023-07-20T03:08:17;8.88;;;3.55;;
40433;SDS011;26146;51.114;5.654;2023-07-20T03:12:18;9.38;;;3.42;;
40433;SDS011;26146;51.114;5.654;2023-07-20T03:16:19;11.57;;;3.20;;
40433;SDS011;26146;51.114;5.654;2023-07-20T03:20:20;7.95;;;3.25;;
40433;SDS011;26146;51.114;5.654;2023-07-20T03:24:21;12.30;;;3.50;;
40433;SDS011;26146;51.114;5.654;2023-07-20T03:28:23;11.70;;;3.78;;
40433;SDS011;26146;51.114;5.654;2023-07-20T03:32:25;10.13;;;3.67;;
40433;SDS011;26146;51.114;5.654;2023-07-20T03:36:28;9.15;;;3.50;;
40433;SDS011;26146;51.114;5.654;2023-07-20T03:40:29;10.35;;;3.90;;
40433;SDS011;26146;51.114;5.654;2023-07-20T03:44:30;10.55;;;3.47;;
40433;SDS011;26146;51.114;5.654;2023-07-20T03:48:31;9.77;;;4.00;;
40433;SDS011;26146;51.114;5.654;2023-07-20T03:52:32;10.82;;;4.85;;
40433;SDS011;26146;51.114;5.654;2023-07-20T03:56:32;11.60;;;4.32;;
40433;SDS011;26146;51.114;5.654;2023-07-20T04:00:35;12.05;;;4.50;;
40433;SDS011;26146;51.114;5.654;2023-07-20T04:04:36;11.10;;;5.00;;
40433;SDS011;26146;51.114;5.654;2023-07-20T04:08:37;12.63;;;5.50;;
40433;SDS011;26146;51.114;5.654;2023-07-20T04:12:38;12.23;;;5.13;;
40433;SDS011;26146;51.114;5.654;2023-07-20T04:16:39;13.55;;;5.72;;
40433;SDS011;26146;51.114;5.654;2023-07-20T04:20:40;12.38;;;5.68;;
40433;SDS011;26146;51.114;5.654;2023-07-20T04:24:42;13.88;;;5.40;;
40433;SDS011;26146;51.114;5.654;2023-07-20T04:28:43;11.98;;;5.47;;
40433;SDS011;26146;51.114;5.654;2023-07-20T04:32:44;12.40;;;5.85;;
40433;SDS011;26146;51.114;5.654;2023-07-20T04:36:46;12.75;;;6.05;;
40433;SDS011;26146;51.114;5.654;2023-07-20T04:40:48;14.45;;;7.28;;
40433;SDS011;26146;51.114;5.654;2023-07-20T04:44:50;15.88;;;7.10;;
40433;SDS011;26146;51.114;5.654;2023-07-20T04:48:51;19.08;;;7.72;;
40433;SDS011;26146;51.114;5.654;2023-07-20T04:52:52;15.00;;;7.88;;
40433;SDS011;26146;51.114;5.654;2023-07-20T04:56:53;16.60;;;8.82;;
40433;SDS011;26146;51.114;5.654;2023-07-20T05:00:54;21.42;;;9.25;;
40433;SDS011;26146;51.114;5.654;2023-07-20T05:04:55;16.92;;;8.95;;
40433;SDS011;26146;51.114;5.654;2023-07-20T05:08:56;16.85;;;8.68;;
40433;SDS011;26146;51.114;5.654;2023-07-20T05:12:58;16.58;;;9.20;;
40433;SDS011;26146;51.114;5.654;2023-07-20T05:16:59;18.77;;;9.07;;
40433;SDS011;26146;51.114;5.654;2023-07-20T05:21:00;18.95;;;9.95;;
40433;SDS011;26146;51.114;5.654;2023-07-20T05:25:01;15.98;;;9.02;;
40433;SDS011;26146;51.114;5.654;2023-07-20T05:29:02;18.13;;;9.35;;
40433;SDS011;26146;51.114;5.654;2023-07-20T05:33:03;17.92;;;9.57;;
40433;SDS011;26146;51.114;5.654;2023-07-20T05:37:04;18.00;;;9.15;;
40433;SDS011;26146;51.114;5.654;2023-07-20T05:41:06;15.73;;;8.98;;
40433;SDS011;26146;51.114;5.654;2023-07-20T05:45:10;19.35;;;9.40;;
40433;SDS011;26146;51.114;5.654;2023-07-20T05:49:11;16.95;;;9.05;;
40433;SDS011;26146;51.114;5.654;2023-07-20T05:53:12;16.63;;;9.00;;
40433;SDS011;26146;51.114;5.654;2023-07-20T05:57:13;15.52;;;8.35;;
40433;SDS011;26146;51.114;5.654;2023-07-20T06:01:14;15.55;;;8.65;;
40433;SDS011;26146;51.114;5.654;2023-07-20T06:05:15;16.67;;;8.52;;
40433;SDS011;26146;51.114;5.654;2023-07-20T06:09:16;14.90;;;8.35;;
40433;SDS011;26146;51.114;5.654;2023-07-20T06:13:21;14.32;;;7.85;;
40433;SDS011;26146;51.114;5.654;2023-07-20T06:17:23;14.00;;;7.50;;
40433;SDS011;26146;51.114;5.654;2023-07-20T06:21:24;13.20;;;7.13;;
40433;SDS011;26146;51.114;5.654;2023-07-20T06:25:24;13.68;;;7.15;;
40433;SDS011;26146;51.114;5.654;2023-07-20T06:29:25;13.75;;;7.25;;
40433;SDS011;26146;51.114;5.654;2023-07-20T06:33:26;12.00;;;6.45;;
40433;SDS011;26146;51.114;5.654;2023-07-20T06:37:27;11.95;;;6.95;;
40433;SDS011;26146;51.114;5.654;2023-07-20T06:41:28;13.27;;;6.75;;
40433;SDS011;26146;51.114;5.654;2023-07-20T06:45:29;11.80;;;6.97;;
40433;SDS011;26146;51.114;5.654;2023-07-20T06:49:30;12.77;;;7.20;;
40433;SDS011;26146;51.114;5.654;2023-07-20T06:53:32;13.02;;;7.28;;
40433;SDS011;26146;51.114;5.654;2023-07-20T06:57:33;12.02;;;6.90;;
40433;SDS011;26146;51.114;5.654;2023-07-20T07:01:34;11.48;;;6.38;;
40433;SDS011;26146;51.114;5.654;2023-07-20T07:05:36;10.82;;;5.43;;
40433;SDS011;26146;51.114;5.654;2023-07-20T07:09:40;12.63;;;5.60;;
40433;SDS011;26146;51.114;5.654;2023-07-20T07:13:41;11.10;;;5.37;;
40433;SDS011;26146;51.114;5.654;2023-07-20T07:17:42;10.02;;;5.20;;
40433;SDS011;26146;51.114;5.654;2023-07-20T07:21:43;11.48;;;5.20;;
40433;SDS011;26146;51.114;5.654;2023-07-20T07:25:44;10.23;;;4.75;;
40433;SDS011;26146;51.114;5.654;2023-07-20T07:29:46;10.25;;;5.07;;
40433;SDS011;26146;51.114;5.654;2023-07-20T07:33:48;9.32;;;4.47;;
40433;SDS011;26146;51.114;5.654;2023-07-20T07:37:49;8.90;;;4.72;;
40433;SDS011;26146;51.114;5.654;2023-07-20T07:41:50;11.73;;;4.32;;
40433;SDS011;26146;51.114;5.654;2023-07-20T07:45:53;7.25;;;2.72;;
40433;SDS011;26146;51.114;5.654;2023-07-20T07:49:55;7.85;;;3.20;;
40433;SDS011;26146;51.114;5.654;2023-07-20T07:53:57;6.75;;;2.78;;
40433;SDS011;26146;51.114;5.654;2023-07-20T07:57:58;8.05;;;2.50;;
40433;SDS011;26146;51.114;5.654;2023-07-20T08:01:59;5.70;;;2.35;;
40433;SDS011;26146;51.114;5.654;2023-07-20T08:06:00;4.85;;;1.75;;
40433;SDS011;26146;51.114;5.654;2023-07-20T08:10:04;4.68;;;1.25;;
40433;SDS011;26146;51.114;5.654;2023-07-20T08:14:06;6.05;;;1.55;;
40433;SDS011;26146;51.114;5.654;2023-07-20T08:18:10;3.92;;;1.33;;
40433;SDS011;26146;51.114;5.654;2023-07-20T08:22:11;4.68;;;1.45;;
40433;SDS011;26146;51.114;5.654;2023-07-20T08:26:12;5.03;;;1.90;;
40433;SDS011;26146;51.114;5.654;2023-07-20T08:30:13;7.00;;;2.03;;
40433;SDS011;26146;51.114;5.654;2023-07-20T08:34:14;5.63;;;1.80;;
40433;SDS011;26146;51.114;5.654;2023-07-20T08:38:15;4.55;;;1.45;;
40433;SDS011;26146;51.114;5.654;2023-07-20T08:42:16;4.93;;;1.60;;
40433;SDS011;26146;51.114;5.654;2023-07-20T08:46:17;4.70;;;1.40;;
40433;SDS011;26146;51.114;5.654;2023-07-20T08:50:18;3.88;;;1.00;;
40433;SDS011;26146;51.114;5.654;2023-07-20T08:54:21;4.70;;;1.00;;
40433;SDS011;26146;51.114;5.654;2023-07-20T08:58:23;3.17;;;0.95;;
40433;SDS011;26146;51.114;5.654;2023-07-20T09:02:26;2.50;;;0.80;;
40433;SDS011;26146;51.114;5.654;2023-07-20T09:06:28;3.25;;;0.85;;
40433;SDS011;26146;51.114;5.654;2023-07-20T09:10:29;4.50;;;1.40;;
40433;SDS011;26146;51.114;5.654;2023-07-20T09:14:30;4.00;;;1.20;;
40433;SDS011;26146;51.114;5.654;2023-07-20T09:18:32;3.38;;;1.00;;
40433;SDS011;26146;51.114;5.654;2023-07-20T09:22:34;5.00;;;1.27;;
40433;SDS011;26146;51.114;5.654;2023-07-20T09:26:40;3.83;;;1.08;;
40433;SDS011;26146;51.114;5.654;2023-07-20T09:30:42;3.25;;;1.10;;
40433;SDS011;26146;51.114;5.654;2023-07-20T09:34:43;5.50;;;1.13;;
40433;SDS011;26146;51.114;5.654;2023-07-20T09:38:44;3.95;;;1.10;;
40433;SDS011;26146;51.114;5.654;2023-07-20T09:42:46;4.85;;;1.08;;
40433;SDS011;26146;51.114;5.654;2023-07-20T09:46:47;3.38;;;1.00;;
40433;SDS011;26146;51.114;5.654;2023-07-20T09:50:49;3.42;;;0.90;;
40433;SDS011;26146;51.114;5.654;2023-07-20T09:54:51;5.03;;;1.00;;
40433;SDS011;26146;51.114;5.654;2023-07-20T09:58:53;3.60;;;0.95;;
40433;SDS011;26146;51.114;5.654;2023-07-20T10:02:53;4.43;;;1.50;;
40433;SDS011;26146;51.114;5.654;2023-07-20T10:11:00;3.63;;;1.00;;
40433;SDS011;26146;51.114;5.654;2023-07-20T10:19:43;4.47;;;1.17;;
40433;SDS011;26146;51.114;5.654;2023-07-20T10:23:47;4.30;;;1.20;;
40433;SDS011;26146;51.114;5.654;2023-07-20T10:27:49;3.63;;;1.10;;
40433;SDS011;26146;51.114;5.654;2023-07-20T10:31:50;4.13;;;1.30;;
40433;SDS011;26146;51.114;5.654;2023-07-20T10:39:55;3.22;;;1.00;;
40433;SDS011;26146;51.114;5.654;2023-07-20T10:44:09;3.13;;;0.93;;
40433;SDS011;26146;51.114;5.654;2023-07-20T10:48:20;4.13;;;0.90;;
40433;SDS011;26146;51.114;5.654;2023-07-20T10:52:22;2.90;;;0.90;;
40433;SDS011;26146;51.114;5.654;2023-07-20T10:56:25;4.13;;;0.90;;
40433;SDS011;26146;51.114;5.654;2023-07-20T11:00:29;4.78;;;1.00;;
40433;SDS011;26146;51.114;5.654;2023-07-20T11:04:40;1.77;;;0.65;;
40433;SDS011;26146;51.114;5.654;2023-07-20T11:17:30;4.22;;;1.00;;
40433;SDS011;26146;51.114;5.654;2023-07-20T11:21:35;3.53;;;1.00;;
40433;SDS011;26146;51.114;5.654;2023-07-20T11:25:38;2.90;;;0.90;;
40433;SDS011;26146;51.114;5.654;2023-07-20T11:29:40;3.78;;;0.90;;
40433;SDS011;26146;51.114;5.654;2023-07-20T11:33:46;3.00;;;0.82;;
40433;SDS011;26146;51.114;5.654;2023-07-20T11:37:47;4.43;;;0.90;;
40433;SDS011;26146;51.114;5.654;2023-07-20T11:41:51;2.95;;;0.82;;
40433;SDS011;26146;51.114;5.654;2023-07-20T11:45:53;2.63;;;0.70;;
40433;SDS011;26146;51.114;5.654;2023-07-20T11:49:57;2.13;;;0.70;;
40433;SDS011;26146;51.114;5.654;2023-07-20T11:54:04;3.17;;;0.70;;
40433;SDS011;26146;51.114;5.654;2023-07-20T11:58:13;1.98;;;0.50;;
40433;SDS011;26146;51.114;5.654;2023-07-20T12:02:17;3.08;;;0.70;;
40433;SDS011;26146;51.114;5.654;2023-07-20T12:06:18;3.60;;;0.75;;
40433;SDS011;26146;51.114;5.654;2023-07-20T12:10:26;3.45;;;0.80;;
40433;SDS011;26146;51.114;5.654;2023-07-20T12:14:28;3.88;;;0.80;;
40433;SDS011;26146;51.114;5.654;2023-07-20T12:18:34;2.28;;;0.68;;
40433;SDS011;26146;51.114;5.654;2023-07-20T12:22:39;4.15;;;1.00;;
40433;SDS011;26146;51.114;5.654;2023-07-20T12:26:43;2.55;;;0.70;;
40433;SDS011;26146;51.114;5.654;2023-07-20T12:30:45;2.67;;;0.60;;
40433;SDS011;26146;51.114;5.654;2023-07-20T12:34:47;2.85;;;0.70;;
40433;SDS011;26146;51.114;5.654;2023-07-20T12:38:48;3.40;;;0.90;;
40433;SDS011;26146;51.114;5.654;2023-07-20T12:42:49;3.50;;;0.90;;
40433;SDS011;26146;51.114;5.654;2023-07-20T12:46:50;2.45;;;0.70;;
40433;SDS011;26146;51.114;5.654;2023-07-20T12:50:51;3.97;;;0.73;;
40433;SDS011;26146;51.114;5.654;2023-07-20T12:54:52;3.90;;;0.90;;
40433;SDS011;26146;51.114;5.654;2023-07-20T12:58:56;2.88;;;0.80;;
40433;SDS011;26146;51.114;5.654;2023-07-20T13:02:56;4.77;;;0.93;;
40433;SDS011;26146;51.114;5.654;2023-07-20T13:06:57;4.13;;;0.90;;
40433;SDS011;26146;51.114;5.654;2023-07-20T13:10:59;2.70;;;0.80;;
40433;SDS011;26146;51.114;5.654;2023-07-20T13:15:01;3.30;;;0.90;;
40433;SDS011;26146;51.114;5.654;2023-07-20T13:19:08;2.70;;;0.80;;
40433;SDS011;26146;51.114;5.654;2023-07-20T13:23:09;2.97;;;0.90;;
40433;SDS011;26146;51.114;5.654;2023-07-20T13:27:10;2.83;;;0.70;;
40433;SDS011;26146;51.114;5.654;2023-07-20T13:31:11;3.15;;;0.80;;
40433;SDS011;26146;51.114;5.654;2023-07-20T13:35:12;3.20;;;0.85;;
40433;SDS011;26146;51.114;5.654;2023-07-20T13:39:13;5.03;;;0.90;;
40433;SDS011;26146;51.114;5.654;2023-07-20T13:43:17;3.00;;;0.70;;
40433;SDS011;26146;51.114;5.654;2023-07-20T13:47:18;3.50;;;0.70;;
40433;SDS011;26146;51.114;5.654;2023-07-20T13:51:19;4.63;;;0.80;;
40433;SDS011;26146;51.114;5.654;2023-07-20T13:55:20;2.97;;;0.70;;
40433;SDS011;26146;51.114;5.654;2023-07-20T13:59:21;3.10;;;0.80;;
40433;SDS011;26146;51.114;5.654;2023-07-20T14:03:22;2.67;;;0.77;;
40433;SDS011;26146;51.114;5.654;2023-07-20T14:07:23;2.42;;;0.60;;
40433;SDS011;26146;51.114;5.654;2023-07-20T14:11:24;2.67;;;0.70;;
40433;SDS011;26146;51.114;5.654;2023-07-20T14:15:25;2.33;;;0.70;;
40433;SDS011;26146;51.114;5.654;2023-07-20T14:19:26;2.70;;;0.68;;
40433;SDS011;26146;51.114;5.654;2023-07-20T14:23:28;2.28;;;0.60;;
40433;SDS011;26146;51.114;5.654;2023-07-20T14:27:29;4.10;;;0.80;;
40433;SDS011;26146;51.114;5.654;2023-07-20T14:31:32;3.70;;;0.77;;
40433;SDS011;26146;51.114;5.654;2023-07-20T14:35:33;2.42;;;0.70;;
40433;SDS011;26146;51.114;5.654;2023-07-20T14:39:34;3.05;;;0.70;;
40433;SDS011;26146;51.114;5.654;2023-07-20T14:43:35;3.03;;;0.60;;
40433;SDS011;26146;51.114;5.654;2023-07-20T14:47:36;3.05;;;0.68;;
40433;SDS011;26146;51.114;5.654;2023-07-20T14:51:37;2.65;;;0.65;;
40433;SDS011;26146;51.114;5.654;2023-07-20T14:55:43;2.55;;;0.73;;
40433;SDS011;26146;51.114;5.654;2023-07-20T14:59:44;2.88;;;0.70;;
40433;SDS011;26146;51.114;5.654;2023-07-20T15:03:50;2.33;;;0.60;;
40433;SDS011;26146;51.114;5.654;2023-07-20T15:07:55;2.42;;;0.80;;
40433;SDS011;26146;51.114;5.654;2023-07-20T15:11:56;3.67;;;0.82;;
40433;SDS011;26146;51.114;5.654;2023-07-20T15:15:57;3.30;;;0.80;;
40433;SDS011;26146;51.114;5.654;2023-07-20T15:19:57;3.22;;;0.80;;
40433;SDS011;26146;51.114;5.654;2023-07-20T15:23:59;3.45;;;0.75;;
40433;SDS011;26146;51.114;5.654;2023-07-20T15:28:00;2.90;;;0.80;;
40433;SDS011;26146;51.114;5.654;2023-07-20T15:32:01;3.00;;;0.80;;
40433;SDS011;26146;51.114;5.654;2023-07-20T15:36:02;4.70;;;0.98;;
40433;SDS011;26146;51.114;5.654;2023-07-20T15:40:04;3.92;;;0.80;;
40433;SDS011;26146;51.114;5.654;2023-07-20T15:44:06;4.32;;;1.10;;
40433;SDS011;26146;51.114;5.654;2023-07-20T15:48:06;3.95;;;0.80;;
40433;SDS011;26146;51.114;5.654;2023-07-20T15:52:08;3.22;;;0.70;;
40433;SDS011;26146;51.114;5.654;2023-07-20T15:56:09;4.18;;;0.73;;
40433;SDS011;26146;51.114;5.654;2023-07-20T16:00:10;2.28;;;0.63;;
40433;SDS011;26146;51.114;5.654;2023-07-20T16:04:11;3.60;;;0.70;;
40433;SDS011;26146;51.114;5.654;2023-07-20T16:08:16;5.53;;;1.00;;
40433;SDS011;26146;51.114;5.654;2023-07-20T16:12:17;3.65;;;0.70;;
40433;SDS011;26146;51.114;5.654;2023-07-20T16:16:18;3.85;;;0.90;;
40433;SDS011;26146;51.114;5.654;2023-07-20T16:20:19;3.13;;;0.82;;
40433;SDS011;26146;51.114;5.654;2023-07-20T16:24:20;3.10;;;0.73;;
40433;SDS011;26146;51.114;5.654;2023-07-20T16:28:21;3.03;;;0.93;;
40433;SDS011;26146;51.114;5.654;2023-07-20T16:32:22;5.32;;;1.00;;
40433;SDS011;26146;51.114;5.654;2023-07-20T16:36:23;4.97;;;1.00;;
40433;SDS011;26146;51.114;5.654;2023-07-20T16:40:24;4.35;;;1.08;;
40433;SDS011;26146;51.114;5.654;2023-07-20T16:44:25;4.50;;;1.10;;
40433;SDS011;26146;51.114;5.654;2023-07-20T16:48:26;5.07;;;1.30;;
40433;SDS011;26146;51.114;5.654;2023-07-20T16:52:27;4.47;;;1.02;;
40433;SDS011;26146;51.114;5.654;2023-07-20T16:56:28;29.15;;;16.40;;
40433;SDS011;26146;51.114;5.654;2023-07-20T17:00:29;7.28;;;2.75;;
40433;SDS011;26146;51.114;5.654;2023-07-20T17:04:31;8.15;;;2.38;;
40433;SDS011;26146;51.114;5.654;2023-07-20T17:08:32;6.15;;;2.30;;
40433;SDS011;26146;51.114;5.654;2023-07-20T17:12:36;5.38;;;1.40;;
40433;SDS011;26146;51.114;5.654;2023-07-20T17:20:38;5.10;;;1.20;;
40433;SDS011;26146;51.114;5.654;2023-07-20T17:24:39;4.10;;;1.30;;
40433;SDS011;26146;51.114;5.654;2023-07-20T17:28:41;4.22;;;1.30;;
40433;SDS011;26146;51.114;5.654;2023-07-20T17:32:42;4.10;;;1.40;;
40433;SDS011;26146;51.114;5.654;2023-07-20T17:36:43;4.63;;;1.30;;
40433;SDS011;26146;51.114;5.654;2023-07-20T17:40:44;4.95;;;1.40;;
40433;SDS011;26146;51.114;5.654;2023-07-20T17:44:45;5.95;;;1.27;;
40433;SDS011;26146;51.114;5.654;2023-07-20T17:48:46;5.43;;;1.42;;
40433;SDS011;26146;51.114;5.654;2023-07-20T17:52:48;4.30;;;1.40;;
40433;SDS011;26146;51.114;5.654;2023-07-20T17:56:49;5.45;;;1.48;;
40433;SDS011;26146;51.114;5.654;2023-07-20T18:00:50;6.95;;;2.00;;
40433;SDS011;26146;51.114;5.654;2023-07-20T18:04:52;5.60;;;1.95;;
40433;SDS011;26146;51.114;5.654;2023-07-20T18:08:54;4.80;;;1.60;;
40433;SDS011;26146;51.114;5.654;2023-07-20T18:12:55;4.90;;;1.40;;
40433;SDS011;26146;51.114;5.654;2023-07-20T18:16:56;4.60;;;1.40;;
40433;SDS011;26146;51.114;5.654;2023-07-20T18:20:57;5.18;;;1.90;;
40433;SDS011;26146;51.114;5.654;2023-07-20T18:24:58;6.88;;;2.00;;
40433;SDS011;26146;51.114;5.654;2023-07-20T18:28:59;5.47;;;2.00;;
40433;SDS011;26146;51.114;5.654;2023-07-20T18:33:01;5.25;;;1.70;;
40433;SDS011;26146;51.114;5.654;2023-07-20T18:37:02;6.25;;;1.63;;
40433;SDS011;26146;51.114;5.654;2023-07-20T18:41:03;6.00;;;1.90;;
40433;SDS011;26146;51.114;5.654;2023-07-20T18:45:04;7.38;;;1.92;;
40433;SDS011;26146;51.114;5.654;2023-07-20T18:49:06;6.22;;;2.88;;
40433;SDS011;26146;51.114;5.654;2023-07-20T18:53:07;6.90;;;3.30;;
40433;SDS011;26146;51.114;5.654;2023-07-20T18:57:08;8.55;;;3.53;;
40433;SDS011;26146;51.114;5.654;2023-07-20T19:01:09;7.63;;;3.67;;
40433;SDS011;26146;51.114;5.654;2023-07-20T19:05:11;7.60;;;4.00;;
40433;SDS011;26146;51.114;5.654;2023-07-20T19:09:12;9.00;;;3.78;;
40433;SDS011;26146;51.114;5.654;2023-07-20T19:13:13;8.18;;;4.07;;
40433;SDS011;26146;51.114;5.654;2023-07-20T19:17:15;7.50;;;4.18;;
40433;SDS011;26146;51.114;5.654;2023-07-20T19:21:16;8.15;;;4.40;;
40433;SDS011;26146;51.114;5.654;2023-07-20T19:25:17;9.35;;;4.45;;
40433;SDS011;26146;51.114;5.654;2023-07-20T19:29:18;9.18;;;4.28;;
40433;SDS011;26146;51.114;5.654;2023-07-20T19:33:19;9.50;;;4.20;;
40433;SDS011;26146;51.114;5.654;2023-07-20T19:37:20;8.48;;;4.25;;
40433;SDS011;26146;51.114;5.654;2023-07-20T19:41:21;7.53;;;4.25;;
40433;SDS011;26146;51.114;5.654;2023-07-20T19:45:22;7.57;;;4.10;;
40433;SDS011;26146;51.114;5.654;2023-07-20T19:49:24;7.70;;;4.40;;
40433;SDS011;26146;51.114;5.654;2023-07-20T19:53:25;8.52;;;4.47;;
40433;SDS011;26146;51.114;5.654;2023-07-20T19:57:26;8.45;;;4.30;;
40433;SDS011;26146;51.114;5.654;2023-07-20T20:01:28;9.93;;;5.38;;
40433;SDS011;26146;51.114;5.654;2023-07-20T20:05:29;13.40;;;8.45;;
40433;SDS011;26146;51.114;5.654;2023-07-20T20:09:30;9.52;;;5.55;;
40433;SDS011;26146;51.114;5.654;2023-07-20T20:13:31;8.85;;;5.13;;
40433;SDS011;26146;51.114;5.654;2023-07-20T20:17:33;9.05;;;5.45;;
40433;SDS011;26146;51.114;5.654;2023-07-20T20:21:35;9.40;;;5.28;;
40433;SDS011;26146;51.114;5.654;2023-07-20T20:25:36;8.57;;;5.03;;
40433;SDS011;26146;51.114;5.654;2023-07-20T20:29:37;9.40;;;5.28;;
40433;SDS011;26146;51.114;5.654;2023-07-20T20:33:38;8.73;;;5.20;;
40433;SDS011;26146;51.114;5.654;2023-07-20T20:37:41;9.82;;;5.68;;
40433;SDS011;26146;51.114;5.654;2023-07-20T20:41:42;9.20;;;5.53;;
40433;SDS011;26146;51.114;5.654;2023-07-20T20:45:46;10.25;;;5.53;;
40433;SDS011;26146;51.114;5.654;2023-07-20T20:49:47;10.45;;;6.05;;
40433;SDS011;26146;51.114;5.654;2023-07-20T20:53:50;10.30;;;6.00;;
40433;SDS011;26146;51.114;5.654;2023-07-20T20:57:51;10.27;;;5.90;;
40433;SDS011;26146;51.114;5.654;2023-07-20T21:01:54;8.93;;;5.50;;
40433;SDS011;26146;51.114;5.654;2023-07-20T21:05:56;9.45;;;6.13;;
40433;SDS011;26146;51.114;5.654;2023-07-20T21:09:57;9.68;;;6.10;;
40433;SDS011;26146;51.114;5.654;2023-07-20T21:13:58;10.57;;;6.35;;
40433;SDS011;26146;51.114;5.654;2023-07-20T21:17:59;8.32;;;5.20;;
40433;SDS011;26146;51.114;5.654;2023-07-20T21:22:00;9.23;;;5.65;;
40433;SDS011;26146;51.114;5.654;2023-07-20T21:26:01;8.75;;;5.60;;
40433;SDS011;26146;51.114;5.654;2023-07-20T21:30:02;9.32;;;5.82;;
40433;SDS011;26146;51.114;5.654;2023-07-20T21:34:04;9.45;;;5.88;;
40433;SDS011;26146;51.114;5.654;2023-07-20T21:38:05;10.57;;;5.85;;
40433;SDS011;26146;51.114;5.654;2023-07-20T21:42:06;9.85;;;6.13;;
40433;SDS011;26146;51.114;5.654;2023-07-20T21:46:07;10.05;;;6.22;;
40433;SDS011;26146;51.114;5.654;2023-07-20T21:50:08;9.95;;;6.07;;
40433;SDS011;26146;51.114;5.654;2023-07-20T21:54:10;11.30;;;6.45;;
40433;SDS011;26146;51.114;5.654;2023-07-20T21:58:11;11.35;;;6.72;;
40433;SDS011;26146;51.114;5.654;2023-07-20T22:02:15;10.75;;;6.85;;
40433;SDS011;26146;51.114;5.654;2023-07-20T22:06:16;11.50;;;7.15;;
40433;SDS011;26146;51.114;5.654;2023-07-20T22:10:17;15.25;;;7.47;;
40433;SDS011;26146;51.114;5.654;2023-07-20T22:14:18;11.55;;;7.20;;
40433;SDS011;26146;51.114;5.654;2023-07-20T22:18:21;10.32;;;6.80;;
40433;SDS011;26146;51.114;5.654;2023-07-20T22:22:22;10.50;;;6.78;;
40433;SDS011;26146;51.114;5.654;2023-07-20T22:26:22;10.05;;;6.63;;
40433;SDS011;26146;51.114;5.654;2023-07-20T22:30:24;10.10;;;6.63;;
40433;SDS011;26146;51.114;5.654;2023-07-20T22:34:28;10.52;;;6.22;;
40433;SDS011;26146;51.114;5.654;2023-07-20T22:38:35;11.43;;;7.10;;
40433;SDS011;26146;51.114;5.654;2023-07-20T22:42:37;11.10;;;6.82;;
40433;SDS011;26146;51.114;5.654;2023-07-20T22:46:38;11.55;;;7.10;;
40433;SDS011;26146;51.114;5.654;2023-07-20T22:50:40;11.85;;;7.40;;
40433;SDS011;26146;51.114;5.654;2023-07-20T22:54:42;10.77;;;6.47;;
40433;SDS011;26146;51.114;5.654;2023-07-20T22:58:43;11.15;;;7.57;;
40433;SDS011;26146;51.114;5.654;2023-07-20T23:02:44;12.30;;;8.50;;
40433;SDS011;26146;51.114;5.654;2023-07-20T23:06:45;11.90;;;8.20;;
40433;SDS011;26146;51.114;5.654;2023-07-20T23:10:46;12.07;;;8.40;;
40433;SDS011;26146;51.114;5.654;2023-07-20T23:14:47;12.27;;;6.95;;
40433;SDS011;26146;51.114;5.654;2023-07-20T23:18:48;10.85;;;7.65;;
40433;SDS011;26146;51.114;5.654;2023-07-20T23:22:49;10.85;;;7.15;;
40433;SDS011;26146;51.114;5.654;2023-07-20T23:26:51;11.77;;;7.60;;
40433;SDS011;26146;51.114;5.654;2023-07-20T23:30:53;11.23;;;7.55;;
40433;SDS011;26146;51.114;5.654;2023-07-20T23:34:54;12.07;;;7.88;;
40433;SDS011;26146;51.114;5.654;2023-07-20T23:38:55;11.68;;;7.68;;
40433;SDS011;26146;51.114;5.654;2023-07-20T23:42:57;12.10;;;8.02;;
40433;SDS011;26146;51.114;5.654;2023-07-20T23:46:58;11.07;;;7.72;;
40433;SDS011;26146;51.114;5.654;2023-07-20T23:50:59;11.25;;;7.50;;
40433;SDS011;26146;51.114;5.654;2023-07-20T23:55:06;11.55;;;8.07;;
40433;SDS011;26146;51.114;5.654;2023-07-20T23:59:09;12.63;;;8.65;;
